NCAR-RAP Real-Time Weather Data

Output produced by METARs form (26 May 2022  08:31 UTC)
found at http://weather.rap.ucar.edu/surface/
 
KORD 260751Z 19009G19KT 10SM FEW020 BKN030 OVC040 21/18 A2976 RMK AO2 RAB17E26 SLP075 P0000 T02060183
KORD 260651Z 18009G17KT 10SM SCT037 BKN045 BKN065 21/18 A2976 RMK AO2 RAB02E35 SLP075 P0000 T02110183
KORD 260551Z 21007KT 10SM FEW032 BKN070 OVC095 20/18 A2977 RMK AO2 PK WND 23028/0520 WSHFT 0512 RAB19E37 SLP079 P0002 60002 T02000178 10244 20200 402610122 53001
KORD 260538Z 21010KT 10SM SCT018 BKN075 OVC090 20/18 A2977 RMK AO2 PK WND 23028/0520 WSHFT 0512 RAB19E37 CB DSNT N MOV N P0002 T02000178
KORD 260527Z COR 23013G28KT 10SM -RA BKN018CB BKN041 OVC070 21/18 A2978 RMK AO2 PK WND 23028/0520 WSHFT 0512 RAB19 CB N MOV N P0001 T02060178
KORD 260451Z 17012G20KT 10SM BKN019 OVC120 22/19 A2976 RMK AO2 SLP075 T02220189
KORD 260351Z 18009G18KT 10SM BKN023 BKN120 OVC250 22/19 A2976 RMK AO2 SLP075 T02220189
KORD 260251Z 18009KT 10SM SCT025 BKN060 BKN120 OVC250 23/19 A2977 RMK AO2 SLP078 T02280189 51004
KORD 260248Z 18010KT 10SM SCT025 BKN060 BKN120 OVC250 23/19 A2977 RMK AO2
KORD 260232Z 18010KT 10SM BKN025 BKN120 OVC250 23/18 A2977 RMK AO2 T02280183
KORD 260151Z 18008KT 10SM FEW035 FEW080 SCT120 BKN250 23/18 A2976 RMK AO2 LTG DSNT NW SLP075 T02280178
KORD 260051Z 17011KT 10SM FEW035 FEW070 SCT120 BKN250 23/18 A2976 RMK AO2 SLP074 T02330178
KORD 252351Z 14006KT 10SM FEW035 SCT070 BKN120 BKN250 24/20 A2974 RMK AO2 LTG DSNT SE RAE05B36E50 SLP069 VCSH CB DSNT SE P0001 60012 T02440200 10261 20200 58015
KORD 252251Z 17005KT 10SM -RA FEW035 SCT050 BKN150 BKN250 25/20 A2977 RMK AO2 RAB13E30B50 SLP079 P0000 T02500200
KORD 252151Z 17010G20KT 10SM SCT030CB SCT085 BKN150 BKN250 25/19 A2977 RMK AO2 RAB34E46 TSB2054E16 SLP079 CB NE AND SW MOV NE P0000 T02500194
KORD 252119Z 30003KT 10SM SCT035 BKN080 BKN250 23/20 A2978 RMK AO2 LTG DSNT N TSB2054E16 T02330200
KORD 252054Z 16006G16KT 10SM TS FEW034 SCT048 BKN085 24/19 A2979 RMK AO2 TSB54 T02390194
KORD 252051Z VRB04G16KT 10SM FEW019 FEW033CB SCT065 BKN250 24/19 A2979 RMK AO2 RAE35 SLP085 CB W-NW MOV N P0011 60011 T02390194 58031
KORD 252027Z 18008KT 6SM R10L/3000VP6000FT -RA BR FEW018 BKN031 BKN065 OVC250 22/20 A2981 RMK AO2 P0011 T02220200
KORD 252021Z 16008KT 2SM R10L/3500VP6000FT +RA BR FEW018 BKN030 BKN065 OVC250 22/20 A2982 RMK AO2 P0003 T02220200
KORD 251951Z 14011KT 10SM -RA SCT027 BKN070 BKN100 OVC250 24/19 A2982 RMK AO2 RAB47 SLP096 P0000 T02390189
KORD 251931Z 16010KT 10SM SCT021 BKN030 BKN050 BKN250 24/19 A2984 RMK AO2 T02390189
KORD 251851Z 18012G19KT 10SM BKN016 OVC024 23/19 A2986 RMK AO2 SLP108 T02280189
KORD 251830Z 16009KT 9SM SCT008 OVC015 22/19 A2986 RMK AO2 T02170189
KORD 251824Z 15010KT 8SM BKN008 BKN015 OVC021 22/19 A2987 RMK AO2 T02170189
KORD 251821Z 15010G16KT 8SM SCT010 BKN015 OVC021 22/19 A2987 RMK AO2 T02170189
KORD 251751Z 15007KT 6SM BR OVC007 20/18 A2988 RMK AO2 SLP117 60003 T02000183 10200 20122 58013
KORD 251651Z 12007KT 5SM BR OVC006 19/17 A2990 RMK AO2 DZE11 SLP125 P0000 T01890167
KORD 251648Z 14006KT 5SM BR OVC006 18/17 A2990 RMK AO2 DZE11 P0000
KORD 251614Z 10006KT 3SM BR OVC005 17/16 A2992 RMK AO2 DZE11 P0000 T01720156
KORD 251551Z 11005KT 2 1/2SM -DZ BR OVC005 17/15 A2992 RMK AO2 DZB41 SLP131 P0000 T01670150
KORD 251547Z 11006KT 2 1/2SM -DZ BR OVC005 17/15 A2992 RMK AO2 DZB41 P0000
KORD 251511Z 11005KT 4SM BR OVC006 16/14 A2993 RMK AO2 T01560144
KORD 251451Z 11006KT 6SM BR OVC006 15/13 A2994 RMK AO2 RAE1356B14E24 SLP137 P0000 60003 T01500133 57014
KORD 251351Z 11009KT 8SM -RA OVC007 14/13 A2995 RMK AO2 RAB04E23B44 SLP144 P0001 T01440128
KORD 251251Z 08008KT 9SM OVC008 13/11 A2996 RMK AO2 RAE16 SLP145 P0002 T01280111
KORD 251240Z 08007KT 8SM OVC008 13/11 A2996 RMK AO2 RAE16 P0002 T01280111
KORD 251211Z 08007KT 5SM -RA BR OVC012 12/11 A2997 RMK AO2 P0002 T01220106
KORD 251151Z 08008KT 3SM -RA OVC018 13/10 A2998 RMK AO2 SLP151 P0005 60005 70005 T01280100 10150 20128 56002
KORD 251146Z 08008KT 4SM -RA OVC018 13/10 A2998 RMK AO2 P0004
KORD 251107Z 08008KT 10SM -RA BKN022 OVC028 14/09 A2998 RMK AO2 P0000 T01440089
KORD 251051Z 09008KT 10SM -RA BKN030 BKN100 OVC250 14/08 A2998 RMK AO2 RAB42 SLP152 P0000 T01440083
KORD 250951Z 07011KT 10SM FEW080 BKN100 OVC250 14/08 A2998 RMK AO2 SLP153 T01440078
KORD 250851Z 09011KT 10SM SCT080 BKN250 15/07 A3001 RMK AO2 SLP160 T01500072 56020
KORD 250751Z 08007KT 10SM BKN075 BKN250 15/07 A3002 RMK AO2 SLP166 T01500067
KORD 250651Z 08008KT 10SM BKN080 OVC120 14/06 A3004 RMK AO2 SLP170 T01440056
KORD 250551Z 08012KT 10SM BKN085 OVC150 14/05 A3007 RMK AO2 SLP181 T01390050 10150 20122 401890094 58020
KORD 250451Z 06008KT 10SM SCT090 BKN120 BKN250 13/05 A3010 RMK AO2 SLP191 T01330050
KORD 250351Z 05011KT 10SM SCT110 BKN150 BKN250 13/05 A3011 RMK AO2 SLP197 T01280050
KORD 250251Z 04011KT 10SM BKN110 BKN150 13/06 A3013 RMK AO2 SLP202 T01280056 56002
KORD 250151Z 03014KT 10SM BKN110 BKN250 12/06 A3013 RMK AO2 SLP204 T01220056
KORD 250051Z 04018G22KT 10SM SCT110 BKN150 BKN200 13/05 A3012 RMK AO2 SLP201 T01330050
KORD 242351Z 05017KT 10SM FEW100 FEW150 SCT200 BKN250 15/04 A3013 RMK AO2 SLP205 T01500044 10189 20150 56011
KORD 242251Z 05016G21KT 10SM FEW100 FEW150 SCT200 17/04 A3014 RMK AO2 SLP208 T01720044
KORD 242151Z 06016KT 10SM FEW100 SCT150 18/04 A3015 RMK AO2 SLP210 T01780039
KORD 242051Z 07014KT 10SM FEW085 SCT150 18/04 A3017 RMK AO2 SLP215 T01780039 58012
KORD 241951Z 07015KT 10SM FEW085 BKN140 17/04 A3018 RMK AO2 SLP220 T01720039
KORD 241851Z 06013G20KT 10SM FEW090 BKN130 18/06 A3020 RMK AO2 SLP226 T01830056
KORD 241751Z 08010KT 10SM FEW095 BKN140 18/06 A3020 RMK AO2 SLP228 T01780061 10178 20117 58005
KORD 241651Z 09012KT 10SM SCT100 BKN140 18/06 A3022 RMK AO2 SLP234 T01780056
KORD 241551Z 08011KT 10SM BKN095 BKN140 17/06 A3022 RMK AO2 SLP235 T01720056
KORD 241451Z 11011KT 10SM FEW095 BKN150 17/06 A3022 RMK AO2 SLP233 T01670056 58007
KORD 241351Z 13011KT 10SM OVC100 15/06 A3024 RMK AO2 SLP240 T01500061
KORD 241251Z 10007KT 10SM BKN100 OVC140 13/07 A3024 RMK AO2 SLP240 T01280072
KORD 241151Z 09006KT 10SM BKN100 OVC250 12/07 A3024 RMK AO2 SLP240 T01170072 10117 20094 52006
KORD 241051Z 09004KT 10SM SCT110 BKN250 11/07 A3023 RMK AO2 SLP239 T01060067
KORD 240951Z 06006KT 10SM BKN110 OVC250 11/06 A3022 RMK AO2 SLP235 T01060056
KORD 240851Z 06007KT 10SM BKN110 OVC250 11/04 A3022 RMK AO2 SLP234 T01060044 55005